Time;durP1;ratioP1;P1;durP2;ratioP2;P2;SDS_P1;SDS_P2;PMS_P1;PMS_P2;Temp;Humidity;BMP_temperature;BMP_pressure;BME280_temperature;BME280_humidity;BME280_pressure;Samples;Min_cycle;Max_cycle;Signal;HPM_P1;HPM_P2
2021/12/10 00:01:49;;;;;;;12.30;5.67;;;;;;;15.26;61.50;101471.91;1628396;86;21063;-72
2021/12/10 00:04:19;;;;;;;14.25;6.20;;;;;;;15.28;61.57;101479.72;1600692;88;21046;-72
2021/12/10 00:06:53;;;;;;;13.40;6.15;;;;;;;15.30;61.62;101476.59;1651195;86;21067;-73
2021/12/10 00:09:25;;;;;;;14.45;6.35;;;;;;;15.31;61.59;101475.70;1639448;86;21086;-74
2021/12/10 00:12:00;;;;;;;12.78;6.10;;;;;;;15.32;61.64;101483.52;1593661;88;21101;-76
2021/12/10 00:14:30;;;;;;;15.10;6.35;;;;;;;15.33;61.61;101476.52;1574209;90;21098;-71
2021/12/10 00:16:59;;;;;;;16.02;6.67;;;;;;;15.33;61.66;101479.14;1570240;89;21607;-72
2021/12/10 00:19:37;;;;;;;15.08;6.75;;;;;;;15.32;61.73;101487.90;1530901;92;21088;-73
2021/12/10 00:22:09;;;;;;;13.60;7.10;;;;;;;15.35;61.77;101491.76;1535030;92;21073;-72
2021/12/10 00:24:38;;;;;;;13.60;6.28;;;;;;;15.37;61.77;101491.26;1537807;92;21116;-75
2021/12/10 00:27:07;;;;;;;18.45;5.95;;;;;;;15.40;61.75;101493.33;1537537;92;21717;-73
2021/12/10 00:29:35;;;;;;;15.68;6.28;;;;;;;15.43;61.71;101487.17;1534538;92;21171;-73
2021/12/10 00:32:06;;;;;;;11.35;6.33;;;;;;;15.45;61.56;101486.23;1534504;92;21088;-72
2021/12/10 00:34:41;;;;;;;12.98;6.45;;;;;;;15.44;61.52;101482.31;1534635;92;21127;-73
2021/12/10 00:37:10;;;;;;;15.20;5.35;;;;;;;15.44;61.57;101478.38;1529191;92;21170;-74
2021/12/10 00:39:44;;;;;;;13.65;5.72;;;;;;;15.45;61.49;101480.12;1526121;92;21158;-74
2021/12/10 00:42:14;;;;;;;16.00;6.83;;;;;;;15.46;61.49;101480.50;1537700;92;21115;-74
2021/12/10 00:44:41;;;;;;;15.15;6.22;;;;;;;15.46;61.53;101474.81;1539325;92;21158;-75
2021/12/10 00:47:07;;;;;;;13.48;5.85;;;;;;;15.47;61.46;101477.00;1534370;92;21061;-72
2021/12/10 00:49:36;;;;;;;12.73;6.00;;;;;;;15.48;61.41;101469.99;1535629;92;21125;-72
2021/12/10 00:52:04;;;;;;;12.82;5.47;;;;;;;15.46;61.33;101460.84;1527456;93;21150;-75
2021/12/10 00:54:30;;;;;;;13.68;5.72;;;;;;;15.44;61.27;101454.33;1559923;91;21052;-70
2021/12/10 00:56:57;;;;;;;13.30;5.78;;;;;;;15.43;61.32;101465.72;1559734;91;21107;-72
2021/12/10 00:59:23;;;;;;;13.53;6.05;;;;;;;15.42;61.35;101461.80;1549401;92;21549;-79
2021/12/10 01:01:50;;;;;;;28.65;7.25;;;;;;;15.42;61.36;101463.11;1549182;92;21675;-72
2021/12/10 01:04:25;;;;;;;19.10;6.70;;;;;;;15.40;61.42;101456.61;1549419;92;21053;-73
2021/12/10 01:06:53;;;;;;;17.05;6.33;;;;;;;15.43;61.42;101458.33;1549276;92;21700;-72
2021/12/10 01:09:24;;;;;;;18.60;6.62;;;;;;;15.44;61.34;101443.84;1585811;88;21089;-70
2021/12/10 01:12:08;;;;;;;21.55;6.47;;;;;;;15.44;61.32;101446.47;1658211;85;21057;-74
2021/12/10 01:14:57;;;;;;;9.98;5.30;;;;;;;15.45;61.25;101448.64;1688098;85;21061;-73
2021/12/10 01:27:54;;;;;;;14.93;6.17;;;;;;;15.52;61.25;101430.48;1636209;86;21052;-72
2021/12/10 01:30:24;;;;;;;11.50;6.58;;;;;;;15.52;61.22;101421.30;1639992;86;21088;-71
2021/12/10 01:33:05;;;;;;;14.00;6.78;;;;;;;15.52;61.18;101422.61;1652723;86;21134;-74
2021/12/10 01:35:36;;;;;;;13.65;5.92;;;;;;;15.52;61.23;101422.61;1659748;86;21000;-76
2021/12/10 01:38:04;;;;;;;18.00;7.30;;;;;;;15.54;61.23;101408.16;1638614;86;21588;-72
2021/12/10 01:40:32;;;;;;;17.92;7.15;;;;;;;15.55;61.25;101408.55;1617681;87;21043;-74
2021/12/10 01:43:06;;;;;;;15.53;6.75;;;;;;;15.56;61.29;101412.42;1627935;87;21126;-73
2021/12/10 01:45:31;;;;;;;13.15;6.90;;;;;;;15.59;61.25;101410.17;1648829;86;21072;-74
2021/12/10 01:48:02;;;;;;;11.63;6.72;;;;;;;15.61;61.14;101409.22;1640002;86;21537;-71
2021/12/10 01:50:30;;;;;;;15.50;7.03;;;;;;;15.62;61.08;101399.11;1646760;85;21084;-74
2021/12/10 01:53:00;;;;;;;15.63;6.55;;;;;;;15.61;61.03;101393.48;1656014;86;21038;-72
2021/12/10 01:55:28;;;;;;;11.75;6.50;;;;;;;15.63;60.99;101394.29;1650353;86;21076;-72
2021/12/10 01:57:55;;;;;;;15.88;7.20;;;;;;;15.63;61.02;101389.04;1649608;86;21561;-76
2021/12/10 02:00:24;;;;;;;11.00;6.17;;;;;;;15.66;60.96;101390.71;1660981;86;21526;-71
2021/12/10 02:02:51;;;;;;;17.20;7.28;;;;;;;15.66;60.92;101386.30;1648068;86;21048;-72
2021/12/10 02:05:18;;;;;;;16.32;7.92;;;;;;;15.68;60.85;101388.90;1650165;86;21076;-73
2021/12/10 02:07:45;;;;;;;13.95;6.67;;;;;;;15.68;60.82;101381.89;1656317;86;21092;-71
2021/12/10 02:10:13;;;;;;;11.68;6.20;;;;;;;15.69;60.73;101374.86;1647717;86;21557;-74
2021/12/10 02:12:39;;;;;;;20.05;7.42;;;;;;;15.69;60.71;101377.03;1624672;86;21530;-73
2021/12/10 02:15:10;;;;;;;15.05;6.97;;;;;;;15.70;60.68;101384.02;1644904;86;21522;-72
2021/12/10 02:17:42;;;;;;;13.15;6.42;;;;;;;15.69;60.67;101379.66;1644891;86;21049;-74
2021/12/10 02:20:17;;;;;;;12.63;6.12;;;;;;;15.69;60.73;101377.48;1649543;86;21576;-72
2021/12/10 02:22:46;;;;;;;18.52;7.53;;;;;;;15.69;60.72;101370.47;1519438;94;21114;-77
2021/12/10 02:25:14;;;;;;;13.03;6.35;;;;;;;15.71;60.70;101367.79;1522419;94;21123;-74
2021/12/10 02:27:40;;;;;;;12.07;6.40;;;;;;;15.71;60.70;101363.86;1525050;94;21090;-73
2021/12/10 02:30:09;;;;;;;16.23;7.22;;;;;;;15.71;60.69;101367.79;1523889;93;21086;-71
2021/12/10 02:32:35;;;;;;;18.92;6.97;;;;;;;15.71;60.64;101359.92;1544062;92;21550;-73
2021/12/10 02:35:03;;;;;;;17.23;6.20;;;;;;;15.71;60.65;101366.03;1540649;91;21577;-73
2021/12/10 02:37:30;;;;;;;16.80;5.85;;;;;;;15.71;60.66;101362.55;1541311;91;21105;-71
2021/12/10 02:39:56;;;;;;;10.03;6.97;;;;;;;15.70;60.67;101366.95;1543689;91;21051;-72
2021/12/10 02:42:23;;;;;;;12.80;5.10;;;;;;;15.71;60.73;101367.34;1531863;91;21089;-74
2021/12/10 02:44:49;;;;;;;16.00;6.67;;;;;;;15.71;60.78;101369.97;1512708;94;21562;-74
2021/12/10 02:47:16;;;;;;;16.25;6.72;;;;;;;15.73;60.74;101365.97;1537859;91;21514;-74
2021/12/10 02:49:43;;;;;;;14.95;6.35;;;;;;;15.74;60.73;101368.57;1544011;91;21577;-73
2021/12/10 02:52:11;;;;;;;14.85;6.33;;;;;;;15.75;60.66;101370.27;1536077;92;21066;-73
2021/12/10 02:54:38;;;;;;;16.95;6.05;;;;;;;15.76;60.59;101358.87;1543107;92;21147;-72
2021/12/10 02:57:12;;;;;;;19.73;6.55;;;;;;;15.76;60.53;101353.63;1537299;92;21111;-72
2021/12/10 02:59:38;;;;;;;24.85;7.90;;;;;;;15.77;60.50;101357.95;1573306;86;21090;-75
2021/12/10 03:02:09;;;;;;;11.05;5.90;;;;;;;15.76;60.58;101351.01;1690186;83;21039;-73
2021/12/10 03:04:36;;;;;;;13.50;6.05;;;;;;;15.78;60.56;101357.06;1631463;87;21032;-72
2021/12/10 03:07:08;;;;;;;14.25;7.10;;;;;;;15.80;60.57;101359.17;1642772;86;21142;-73
2021/12/10 03:09:34;;;;;;;14.03;7.22;;;;;;;15.82;60.51;101352.11;1681859;84;20991;-72
2021/12/10 03:12:02;;;;;;;15.60;6.22;;;;;;;15.84;60.56;101359.48;1673199;84;21058;-76
2021/12/10 03:14:32;;;;;;;13.15;6.00;;;;;;;15.84;60.43;101345.49;1684640;84;21120;-73
2021/12/10 03:17:03;;;;;;;15.20;5.90;;;;;;;15.84;60.44;101338.48;1694482;84;21083;-72
2021/12/10 03:19:29;;;;;;;24.15;7.17;;;;;;;15.83;60.47;101334.13;1686105;84;21078;-78
2021/12/10 03:21:57;;;;;;;18.55;6.95;;;;;;;15.82;60.44;101347.31;1683217;84;21086;-73
2021/12/10 03:24:26;;;;;;;16.12;7.12;;;;;;;15.80;60.50;101344.75;1673938;84;21031;-72
2021/12/10 03:26:54;;;;;;;15.93;6.72;;;;;;;15.80;60.58;101347.38;1691412;84;21565;-73
2021/12/10 03:29:21;;;;;;;17.52;6.25;;;;;;;15.80;60.60;101349.13;1684435;84;21015;-77
2021/12/10 03:31:48;;;;;;;14.53;5.95;;;;;;;15.81;60.60;101350.38;1686290;84;21011;-74
2021/12/10 03:34:14;;;;;;;16.95;6.17;;;;;;;15.83;60.58;101347.25;1686719;84;21046;-75
2021/12/10 03:36:45;;;;;;;16.20;7.42;;;;;;;15.84;60.61;101345.05;1687257;84;21567;-72
2021/12/10 03:39:09;;;;;;;14.70;5.75;;;;;;;15.85;60.59;101342.80;1706173;83;21090;-73
2021/12/10 03:41:36;;;;;;;13.25;6.08;;;;;;;15.87;60.54;101340.98;1687209;83;21021;-73
2021/12/10 03:44:03;;;;;;;13.85;5.72;;;;;;;15.89;60.53;101343.58;1683642;84;21086;-74
2021/12/10 03:46:30;;;;;;;15.28;6.37;;;;;;;15.91;60.49;101334.72;1684463;84;21039;-72
2021/12/10 03:48:56;;;;;;;16.48;6.87;;;;;;;15.92;60.48;101333.83;1682578;84;21047;-74
2021/12/10 03:51:24;;;;;;;23.62;7.33;;;;;;;15.95;60.38;101340.27;1682043;84;20987;-73
2021/12/10 03:53:52;;;;;;;19.35;6.53;;;;;;;15.95;60.36;101338.95;1688584;84;21051;-74
2021/12/10 03:56:21;;;;;;;20.10;7.10;;;;;;;15.95;60.29;101337.64;1691171;84;21075;-74
2021/12/10 03:58:48;;;;;;;14.20;6.15;;;;;;;15.94;60.27;101334.63;1703121;83;21034;-73
2021/12/10 04:01:17;;;;;;;14.03;5.47;;;;;;;15.91;60.35;101337.34;1686841;83;21015;-72
2021/12/10 04:03:45;;;;;;;19.30;7.40;;;;;;;15.90;60.42;101338.27;1698820;84;21499;-73
2021/12/10 04:06:12;;;;;;;18.07;6.75;;;;;;;15.90;60.44;101335.65;1690586;84;21095;-71
2021/12/10 04:08:39;;;;;;;17.32;6.42;;;;;;;15.89;60.47;101333.09;1693686;84;21055;-72
2021/12/10 04:11:05;;;;;;;15.50;6.33;;;;;;;15.90;60.44;101335.65;1636593;87;21617;-75
2021/12/10 04:13:32;;;;;;;15.35;6.05;;;;;;;15.92;60.43;101328.58;1689355;84;21534;-74
2021/12/10 04:15:58;;;;;;;15.58;5.92;;;;;;;15.94;60.36;101321.51;1692403;84;21487;-74
2021/12/10 04:18:25;;;;;;;18.25;6.55;;;;;;;15.96;60.29;101316.20;1696237;84;21031;-72
2021/12/10 04:20:51;;;;;;;17.27;5.47;;;;;;;15.96;60.23;101324.94;1692016;84;21018;-72
2021/12/10 04:23:19;;;;;;;16.50;6.22;;;;;;;15.97;60.27;101321.38;1695984;83;21098;-71
2021/12/10 04:25:46;;;;;;;20.20;6.85;;;;;;;16.00;60.14;101325.23;1689050;84;21582;-73
2021/12/10 04:28:15;;;;;;;15.88;6.90;;;;;;;16.00;60.06;101313.41;1683714;84;21089;-73
2021/12/10 04:30:46;;;;;;;17.73;7.08;;;;;;;16.00;60.01;101326.55;1691279;84;21020;-72
2021/12/10 04:33:15;;;;;;;17.73;6.95;;;;;;;15.99;60.01;101326.13;1691848;84;21101;-72
2021/12/10 04:35:45;;;;;;;15.53;6.45;;;;;;;15.97;60.04;101333.20;1690554;83;21082;-74
2021/12/10 04:38:13;;;;;;;15.20;5.62;;;;;;;15.94;60.13;101321.51;1686661;84;21027;-73
2021/12/10 04:40:39;;;;;;;12.88;5.92;;;;;;;15.94;60.18;101326.76;1688986;84;21055;-75
2021/12/10 04:43:06;;;;;;;19.87;7.35;;;;;;;15.94;60.20;101328.07;1683658;84;21053;-71
2021/12/10 04:45:33;;;;;;;16.73;7.53;;;;;;;15.96;60.23;101321.45;1687330;84;21007;-71
2021/12/10 04:47:59;;;;;;;19.55;6.37;;;;;;;15.98;60.18;101320.94;1693158;83;21051;-71
2021/12/10 04:50:27;;;;;;;16.73;6.35;;;;;;;15.98;60.14;101322.25;1691049;83;21106;-73
2021/12/10 04:52:55;;;;;;;20.95;7.70;;;;;;;15.99;60.14;101319.56;1680189;84;21043;-73
2021/12/10 04:55:22;;;;;;;14.07;6.12;;;;;;;16.00;60.05;101317.80;1683003;84;21122;-73
2021/12/10 04:57:49;;;;;;;18.25;6.28;;;;;;;16.00;60.03;101317.36;1674680;86;21067;-72
2021/12/10 05:00:21;;;;;;;15.53;6.08;;;;;;;16.00;60.07;101317.36;1681077;84;21028;-72
2021/12/10 05:02:49;;;;;;;15.90;6.28;;;;;;;15.97;60.04;101316.13;1636389;87;21529;-71
2021/12/10 05:05:17;;;;;;;13.85;6.08;;;;;;;15.95;60.15;101315.33;1635237;87;21051;-73
2021/12/10 05:07:44;;;;;;;17.80;6.30;;;;;;;15.95;60.19;101311.87;1635168;87;21078;-72
2021/12/10 05:10:14;;;;;;;17.35;7.80;;;;;;;15.95;60.16;101316.64;1644448;85;21054;-74
2021/12/10 05:12:40;;;;;;;22.67;7.90;;;;;;;15.94;60.21;101316.26;1639078;87;21598;-72
2021/12/10 05:15:13;;;;;;;15.78;5.95;;;;;;;15.95;60.16;101320.58;1655126;85;20979;-74
2021/12/10 05:17:40;;;;;;;18.95;5.90;;;;;;;15.94;60.19;101313.63;1631925;86;21077;-73
2021/12/10 05:20:12;;;;;;;22.42;7.35;;;;;;;15.95;60.15;101321.89;1635626;87;21082;-72
2021/12/10 05:22:41;;;;;;;15.25;6.05;;;;;;;15.97;60.08;101313.51;1656710;85;21006;-72
2021/12/10 05:25:08;;;;;;;16.40;6.28;;;;;;;15.99;59.98;101322.19;1663236;85;21017;-74
2021/12/10 05:27:35;;;;;;;17.67;6.60;;;;;;;16.00;59.90;101322.61;1659929;86;21034;-70
2021/12/10 05:30:03;;;;;;;14.85;6.47;;;;;;;15.99;59.81;101327.44;1654127;85;21037;-73
2021/12/10 05:32:30;;;;;;;18.90;5.97;;;;;;;15.99;59.79;101327.44;1654440;85;21061;-72
2021/12/10 05:34:57;;;;;;;13.50;5.42;;;;;;;15.97;59.80;101327.95;1646070;87;21042;-73
2021/12/10 05:37:24;;;;;;;16.82;7.05;;;;;;;15.97;59.81;101330.57;1639763;85;21023;-72
2021/12/10 05:39:50;;;;;;;17.82;5.45;;;;;;;15.96;59.84;101328.87;1654874;85;21085;-70
2021/12/10 05:42:17;;;;;;;21.82;7.08;;;;;;;15.97;59.81;101326.63;1651900;85;21121;-76
2021/12/10 05:44:43;;;;;;;17.80;6.10;;;;;;;15.99;59.78;101326.60;1646350;87;21066;-76
2021/12/10 05:47:10;;;;;;;16.37;6.42;;;;;;;16.02;59.72;101327.80;1646408;87;21513;-72
2021/12/10 05:49:37;;;;;;;18.20;6.35;;;;;;;16.03;59.67;101322.48;1645928;87;21577;-76
2021/12/10 05:52:04;;;;;;;14.10;5.85;;;;;;;16.05;59.60;101329.84;1651502;85;21057;-75
2021/12/10 05:54:30;;;;;;;13.15;5.62;;;;;;;16.05;59.53;101321.14;1646178;86;21022;-73
2021/12/10 05:56:58;;;;;;;19.98;6.03;;;;;;;16.04;59.50;101324.20;1657586;85;21062;-72
2021/12/10 05:59:25;;;;;;;19.35;6.22;;;;;;;16.04;59.52;101325.52;1648301;85;21050;-73
2021/12/10 06:01:52;;;;;;;16.50;6.42;;;;;;;16.04;59.49;101330.77;1653479;85;21077;-72
2021/12/10 06:04:23;;;;;;;15.40;5.75;;;;;;;16.04;59.56;101330.77;1665332;85;21112;-70
2021/12/10 06:06:46;;;;;;;19.73;6.62;;;;;;;16.05;59.56;101324.59;1664222;85;21076;-74
2021/12/10 06:09:12;;;;;;;12.28;5.42;;;;;;;16.06;59.50;101323.70;1663434;85;21111;-72
2021/12/10 06:11:39;;;;;;;16.60;6.40;;;;;;;16.09;59.43;101330.14;1667659;85;21045;-71
2021/12/10 06:14:07;;;;;;;22.40;6.92;;;;;;;16.11;59.34;101321.78;1648691;85;21133;-71
2021/12/10 06:16:35;;;;;;;21.25;6.90;;;;;;;16.13;59.27;101322.58;1655306;85;21660;-74
2021/12/10 06:19:04;;;;;;;19.50;7.60;;;;;;;16.14;59.19;101329.53;1678049;84;21061;-72
2021/12/10 06:21:32;;;;;;;18.98;5.95;;;;;;;16.13;59.12;101327.84;1694202;83;21063;-73
2021/12/10 06:23:59;;;;;;;15.03;5.97;;;;;;;16.12;59.17;101321.30;1699075;84;21519;-72
2021/12/10 06:26:25;;;;;;;14.95;5.83;;;;;;;16.13;59.18;101322.58;1626953;87;21553;-73
2021/12/10 06:28:52;;;;;;;16.50;6.53;;;;;;;16.12;59.17;101317.36;1636713;87;21015;-72
2021/12/10 06:31:21;;;;;;;16.73;5.55;;;;;;;16.13;59.24;101316.02;1635032;87;21567;-77
2021/12/10 06:33:48;;;;;;;14.53;6.30;;;;;;;16.15;59.26;101315.52;1631481;87;21050;-75
2021/12/10 06:36:16;;;;;;;15.93;6.10;;;;;;;16.16;59.22;101313.27;1633067;87;21027;-72
2021/12/10 06:38:43;;;;;;;15.13;6.40;;;;;;;16.17;59.22;101318.94;1643043;86;21027;-71
2021/12/10 06:41:10;;;;;;;21.12;6.20;;;;;;;16.18;59.19;101325.89;1636251;87;21518;-75
2021/12/10 06:43:36;;;;;;;17.75;6.75;;;;;;;16.19;59.07;101322.81;1635714;86;21031;-71
2021/12/10 06:46:05;;;;;;;17.35;6.33;;;;;;;16.19;59.09;101322.37;1647954;86;21558;-74
2021/12/10 06:48:34;;;;;;;16.43;6.37;;;;;;;16.18;59.06;101329.83;1625291;86;21660;-70
2021/12/10 06:51:04;;;;;;;15.85;5.70;;;;;;;16.18;59.11;101325.89;1634224;86;21562;-71
2021/12/10 06:53:31;;;;;;;13.83;5.95;;;;;;;16.19;59.10;101332.87;1695846;83;21062;-72
2021/12/10 06:55:59;;;;;;;20.00;7.20;;;;;;;16.19;59.08;101326.30;1690035;83;21039;-71
2021/12/10 06:58:29;;;;;;;20.12;6.60;;;;;;;16.20;59.06;101331.94;1678039;84;21066;-72
2021/12/10 07:01:00;;;;;;;17.48;6.42;;;;;;;16.22;59.00;101330.11;1684649;84;21070;-73
2021/12/10 07:03:28;;;;;;;14.45;5.42;;;;;;;16.27;58.87;101336.08;1630338;86;21051;-70
2021/12/10 07:05:57;;;;;;;14.98;6.28;;;;;;;16.30;58.73;101335.08;1639227;87;21066;-74
2021/12/10 07:08:25;;;;;;;15.30;5.97;;;;;;;16.33;58.63;101328.87;1636280;86;20995;-73
2021/12/10 07:10:51;;;;;;;13.30;6.22;;;;;;;16.33;58.58;101327.11;1642822;86;21039;-72
2021/12/10 07:13:18;;;;;;;12.75;5.67;;;;;;;16.34;58.58;101335.85;1633883;87;21535;-76
2021/12/10 07:15:47;;;;;;;14.05;6.35;;;;;;;16.34;58.59;101330.59;1636434;87;21486;-71
2021/12/10 07:18:14;;;;;;;15.98;6.40;;;;;;;16.34;58.63;101334.09;1636543;87;21055;-73
2021/12/10 07:20:41;;;;;;;20.00;6.28;;;;;;;16.37;58.57;101340.98;1636047;87;21047;-76
2021/12/10 07:23:08;;;;;;;16.40;6.75;;;;;;;16.38;58.58;101337.45;1647809;86;21163;-74
2021/12/10 07:25:35;;;;;;;20.52;7.20;;;;;;;16.40;58.53;101336.94;1640479;86;21038;-73
2021/12/10 07:28:01;;;;;;;20.10;6.00;;;;;;;16.42;58.53;101333.80;1630961;87;21038;-76
2021/12/10 07:30:28;;;;;;;17.90;5.97;;;;;;;16.44;58.52;101328.03;1630872;87;21082;-75
2021/12/10 07:32:55;;;;;;;16.30;6.42;;;;;;;16.47;58.48;101337.09;1637839;86;21647;-71
2021/12/10 07:35:22;;;;;;;21.82;6.53;;;;;;;16.47;58.49;101327.45;1637598;86;21090;-73
2021/12/10 07:37:49;;;;;;;16.73;6.35;;;;;;;16.49;58.47;101333.55;1636056;87;21103;-73
2021/12/10 07:40:20;;;;;;;17.73;6.72;;;;;;;16.50;58.50;101342.29;1639373;87;21094;-72
2021/12/10 07:42:47;;;;;;;13.50;5.58;;;;;;;16.51;58.51;101337.41;1645965;87;21062;-72
2021/12/10 07:45:14;;;;;;;15.70;6.03;;;;;;;16.54;58.50;101342.58;1633965;87;21070;-70
2021/12/10 07:47:41;;;;;;;20.30;7.00;;;;;;;16.54;58.54;101338.63;1638922;86;21062;-72
2021/12/10 07:50:15;;;;;;;17.25;6.40;;;;;;;16.55;58.57;101343.82;1685616;84;21097;-70
2021/12/10 07:52:44;;;;;;;14.05;5.75;;;;;;;16.62;58.33;101343.14;1685338;83;21125;-71
2021/12/10 07:55:14;;;;;;;16.77;6.17;;;;;;;16.65;58.19;101347.82;1693497;84;21070;-71
2021/12/10 07:57:42;;;;;;;17.57;6.12;;;;;;;16.66;58.10;101343.43;1708362;83;21059;-73
2021/12/10 08:00:13;;;;;;;19.62;5.83;;;;;;;16.67;58.07;101345.16;1693077;83;21011;-78
2021/12/10 08:02:43;;;;;;;17.00;5.62;;;;;;;16.67;58.03;101342.53;1688288;83;21035;-70
2021/12/10 08:05:10;;;;;;;15.58;5.30;;;;;;;16.67;57.94;101343.84;1681945;83;21054;-71
2021/12/10 08:07:37;;;;;;;14.93;5.83;;;;;;;16.66;57.98;101340.80;1683101;84;21081;-72
2021/12/10 08:10:05;;;;;;;18.90;6.28;;;;;;;16.64;58.01;101341.31;1695101;84;21031;-72
2021/12/10 08:12:32;;;;;;;20.85;7.53;;;;;;;16.63;57.97;101338.30;1685946;83;21707;-73
2021/12/10 08:14:59;;;;;;;20.25;6.03;;;;;;;16.64;57.97;101336.92;1692279;83;21574;-75
2021/12/10 08:17:26;;;;;;;21.37;6.55;;;;;;;16.65;57.93;101343.05;1683277;84;21635;-73
2021/12/10 08:19:53;;;;;;;18.27;6.62;;;;;;;16.66;57.86;101333.78;1692368;83;21538;-72
2021/12/10 08:22:20;;;;;;;16.20;6.22;;;;;;;16.66;57.83;101336.86;1688059;84;20991;-76
2021/12/10 08:24:47;;;;;;;16.35;6.35;;;;;;;16.65;57.72;101344.36;1692502;84;21047;-72
2021/12/10 08:27:14;;;;;;;21.17;6.65;;;;;;;16.63;57.79;101338.30;1680436;84;21066;-72
2021/12/10 08:29:42;;;;;;;18.73;6.47;;;;;;;16.61;57.77;101344.08;1687360;84;21086;-70
2021/12/10 08:32:12;;;;;;;24.10;7.65;;;;;;;16.60;57.83;101338.41;1678837;84;21052;-67
2021/12/10 08:34:39;;;;;;;18.32;6.22;;;;;;;16.60;57.80;101334.02;1685356;84;21527;-74
2021/12/10 08:37:05;;;;;;;17.92;7.05;;;;;;;16.61;57.78;101332.25;1682075;84;21619;-69
2021/12/10 08:39:32;;;;;;;17.80;6.95;;;;;;;16.60;57.74;101320.02;1673799;84;21527;-70
2021/12/10 08:41:59;;;;;;;18.90;7.10;;;;;;;16.58;57.77;101323.16;1635449;87;21079;-70
2021/12/10 08:44:26;;;;;;;19.75;7.00;;;;;;;16.56;57.79;101318.41;1627023;87;21047;-71
2021/12/10 08:46:53;;;;;;;21.05;6.45;;;;;;;16.56;57.87;101319.73;1627436;87;21024;-75
2021/12/10 08:49:19;;;;;;;14.93;6.20;;;;;;;16.55;57.95;101319.34;1690171;83;21062;-69
2021/12/10 08:51:50;;;;;;;17.07;6.15;;;;;;;16.56;57.95;101313.16;1665280;84;21129;-68
2021/12/10 08:54:17;;;;;;;20.85;6.85;;;;;;;16.60;57.85;101312.13;1673589;84;21487;-70
2021/12/10 08:56:45;;;;;;;17.67;6.28;;;;;;;16.63;57.76;101302.83;1685907;84;21031;-68
2021/12/10 08:59:13;;;;;;;17.05;6.50;;;;;;;16.64;57.58;101297.96;1678653;84;21034;-72
2021/12/10 09:01:44;;;;;;;12.35;5.65;;;;;;;16.64;57.49;101303.22;1682295;84;21047;-67
2021/12/10 09:04:12;;;;;;;19.02;6.62;;;;;;;16.64;57.48;101303.22;1683649;84;21050;-71
2021/12/10 09:06:43;;;;;;;16.75;6.17;;;;;;;16.63;57.55;101301.52;1622522;86;22232;-68
2021/12/10 09:09:12;;;;;;;15.53;5.92;;;;;;;16.65;57.57;101308.89;1689585;84;21030;-72
2021/12/10 09:11:44;;;;;;;22.65;7.45;;;;;;;16.67;57.64;101307.06;1688403;84;21838;-67
2021/12/10 09:14:11;;;;;;;22.65;7.55;;;;;;;16.70;57.60;101303.84;1695846;83;21074;-68
2021/12/10 09:16:39;;;;;;;20.62;6.33;;;;;;;16.75;57.57;101305.86;1696098;84;21475;-68
2021/12/10 09:19:11;;;;;;;17.17;6.47;;;;;;;16.80;57.41;101300.39;1692015;84;21066;-67
2021/12/10 09:21:37;;;;;;;21.10;6.13;;;;;;;16.84;57.24;101288.84;1701767;84;21035;-68
2021/12/10 09:24:06;;;;;;;16.67;5.75;;;;;;;16.87;57.09;101288.74;1684276;84;21203;-69
2021/12/10 09:26:37;;;;;;;17.70;6.55;;;;;;;16.89;56.98;101288.22;1691753;83;20986;-67
2021/12/10 09:29:07;;;;;;;15.93;5.60;;;;;;;16.91;56.85;101285.08;1688112;83;21071;-68
2021/12/10 09:31:36;;;;;;;19.50;6.87;;;;;;;16.91;56.71;101274.11;1678015;84;21573;-69
2021/12/10 09:34:03;;;;;;;18.37;5.90;;;;;;;16.92;56.57;101279.75;1682785;84;21080;-71
2021/12/10 09:36:31;;;;;;;17.87;6.60;;;;;;;16.95;56.39;101280.09;1688812;84;21027;-70
2021/12/10 09:38:57;;;;;;;18.02;5.53;;;;;;;16.96;56.35;101272.62;1682523;83;21102;-70
2021/12/10 09:41:25;;;;;;;15.75;5.58;;;;;;;16.97;56.42;101261.17;1684777;84;21151;-68
2021/12/10 09:43:52;;;;;;;19.05;6.50;;;;;;;16.96;56.43;101260.80;1685605;84;21018;-69
2021/12/10 09:46:18;;;;;;;22.70;6.75;;;;;;;16.96;56.46;101260.80;1688550;84;21068;-68
2021/12/10 09:48:45;;;;;;;22.52;6.97;;;;;;;16.94;56.52;101262.59;1692186;83;21023;-74
2021/12/10 09:51:17;;;;;;;15.05;7.15;;;;;;;16.94;56.63;101259.52;1698015;84;21070;-69
2021/12/10 09:53:46;;;;;;;;;;;;;;;16.95;56.67;101256.44;1607232;88;21039;-68
2021/12/10 09:56:14;;;;;;;16.85;6.22;;;;;;;16.95;56.62;101259.06;1602255;89;20148;-69
2021/12/10 09:58:41;;;;;;;17.87;5.95;;;;;;;16.92;56.59;101249.52;1582570;91;21066;-70
2021/12/10 10:01:22;;;;;;;21.40;7.15;;;;;;;16.92;56.60;101256.54;1551043;90;21117;-69
2021/12/10 10:03:51;;;;;;;17.92;6.47;;;;;;;16.90;56.57;101251.80;1568378;90;21052;-67
2021/12/10 10:06:18;;;;;;;21.87;7.15;;;;;;;16.87;56.59;101254.57;1577695;90;21034;-69
2021/12/10 10:08:45;;;;;;;17.32;5.80;;;;;;;16.85;56.60;101247.20;1554373;92;21172;-66
2021/12/10 10:11:20;;;;;;;16.55;5.80;;;;;;;16.84;56.61;101242.41;1583353;91;21058;-70
2021/12/10 10:13:49;;;;;;;20.50;6.08;;;;;;;16.83;56.64;101242.47;1569108;91;21061;-70
2021/12/10 10:16:16;;;;;;;19.75;6.92;;;;;;;16.82;56.80;101244.69;1554343;92;21534;-68
2021/12/10 10:18:45;;;;;;;19.00;6.37;;;;;;;16.85;56.90;101247.20;1583589;91;21050;-70
2021/12/10 10:21:21;;;;;;;21.35;5.95;;;;;;;16.88;56.88;101241.36;1557549;90;21066;-69
2021/12/10 10:23:48;;;;;;;18.98;5.72;;;;;;;16.92;56.82;101235.52;1578448;90;21097;-68
2021/12/10 10:26:19;;;;;;;20.27;6.80;;;;;;;16.94;56.66;101242.88;1569944;90;21155;-67
2021/12/10 10:28:47;;;;;;;18.00;7.20;;;;;;;16.97;56.49;101236.20;1569473;91;21109;-66
2021/12/10 10:31:19;;;;;;;18.92;6.20;;;;;;;16.98;56.36;101237.92;1554729;91;21088;-71
2021/12/10 10:33:48;;;;;;;15.60;7.53;;;;;;;16.97;56.33;101238.83;1565256;91;21098;-69
2021/12/10 10:36:19;;;;;;;15.88;6.50;;;;;;;16.95;56.44;101239.34;1574014;90;21034;-67
2021/12/10 10:38:50;;;;;;;16.97;5.80;;;;;;;16.93;56.54;101238.10;1555882;90;21109;-67
2021/12/10 10:41:18;;;;;;;16.15;6.35;;;;;;;16.93;56.64;101243.36;1569920;91;21053;-68
2021/12/10 10:43:44;;;;;;;19.75;6.80;;;;;;;16.95;56.65;101251.17;1592031;89;21519;-72
2021/12/10 10:46:11;;;;;;;23.80;7.53;;;;;;;16.96;56.55;101235.81;1595206;89;21002;-68
2021/12/10 10:48:41;;;;;;;18.82;5.85;;;;;;;16.98;56.47;101247.95;1589769;90;21119;-68
2021/12/10 10:51:12;;;;;;;14.58;5.75;;;;;;;17.00;56.32;101234.29;1634334;86;21590;-67
2021/12/10 10:53:48;;;;;;;15.80;6.15;;;;;;;17.04;56.30;101236.36;1644386;85;21074;-68
2021/12/10 10:56:20;;;;;;;17.82;5.67;;;;;;;17.06;56.29;101235.84;1641692;86;21193;-68
2021/12/10 10:58:54;;;;;;;12.58;4.97;;;;;;;17.07;56.26;101237.53;1599619;88;21052;-68
2021/12/10 11:01:39;;;;;;;21.48;6.58;;;;;;;17.06;56.24;101226.63;1597047;88;21075;-68
2021/12/10 11:04:17;;;;;;;15.38;6.37;;;;;;;17.07;56.20;101230.96;1552999;90;21049;-67
2021/12/10 11:06:45;;;;;;;20.75;5.53;;;;;;;17.08;56.15;101228.74;1500628;94;21145;-70
2021/12/10 11:09:16;;;;;;;19.95;6.80;;;;;;;17.06;56.09;101237.98;1498532;94;21139;-68
2021/12/10 11:11:52;;;;;;;18.23;5.70;;;;;;;17.05;56.08;101234.11;1497786;95;21131;-67
2021/12/10 11:14:29;;;;;;;15.30;5.47;;;;;;;17.02;56.10;101236.88;1459407;97;21094;-67
2021/12/10 11:17:04;;;;;;;14.25;5.60;;;;;;;16.99;56.14;101223.84;1453612;97;21249;-74
2021/12/10 11:19:31;;;;;;;14.78;5.92;;;;;;;16.96;56.20;101223.50;1425615;99;21208;-68
2021/12/10 11:22:13;;;;;;;20.10;6.25;;;;;;;16.94;56.26;101221.40;1429883;99;21188;-67
2021/12/10 11:24:47;;;;;;;19.17;6.22;;;;;;;16.94;56.33;101220.53;1429861;99;21636;-68
2021/12/10 11:27:28;;;;;;;23.95;7.55;;;;;;;16.93;56.32;101213.13;1433364;99;21681;-67
2021/12/10 11:30:12;;;;;;;16.25;6.40;;;;;;;16.92;56.37;101206.59;1433730;99;21154;-68
2021/12/10 11:32:52;;;;;;;21.05;6.58;;;;;;;16.91;56.39;101216.73;1425373;98;21077;-68
2021/12/10 11:35:36;;;;;;;14.38;5.53;;;;;;;16.89;56.35;101211.55;1461409;96;21201;-67